sensor_id;sensor_type;location;lat;lon;timestamp;temperature;humidity
21602;DHT22;10963;50.934;4.668;2022-09-09T00:02:22;15.90;99.90
21602;DHT22;10963;50.934;4.668;2022-09-09T00:05:37;15.90;99.90
21602;DHT22;10963;50.934;4.668;2022-09-09T00:08:03;15.90;99.90
21602;DHT22;10963;50.934;4.668;2022-09-09T00:10:33;15.90;99.90
21602;DHT22;10963;50.934;4.668;2022-09-09T00:13:09;16.10;99.90
21602;DHT22;10963;50.934;4.668;2022-09-09T00:21:14;16.00;99.90
21602;DHT22;10963;50.934;4.668;2022-09-09T00:23:49;15.90;99.90
21602;DHT22;10963;50.934;4.668;2022-09-09T00:26:29;16.00;99.90
21602;DHT22;10963;50.934;4.668;2022-09-09T00:31:31;16.00;99.90
21602;DHT22;10963;50.934;4.668;2022-09-09T00:34:13;15.90;99.90
21602;DHT22;10963;50.934;4.668;2022-09-09T00:36:41;16.00;99.90
21602;DHT22;10963;50.934;4.668;2022-09-09T00:39:25;16.00;99.90
21602;DHT22;10963;50.934;4.668;2022-09-09T00:42:10;16.00;99.90
21602;DHT22;10963;50.934;4.668;2022-09-09T00:44:38;15.90;99.90
21602;DHT22;10963;50.934;4.668;2022-09-09T00:50:26;15.90;99.90
21602;DHT22;10963;50.934;4.668;2022-09-09T00:58:11;16.00;99.90
21602;DHT22;10963;50.934;4.668;2022-09-09T01:16:59;16.20;99.90
21602;DHT22;10963;50.934;4.668;2022-09-09T01:27:44;16.00;99.90
21602;DHT22;10963;50.934;4.668;2022-09-09T01:30:13;16.10;99.90
21602;DHT22;10963;50.934;4.668;2022-09-09T01:32:43;16.10;99.90
21602;DHT22;10963;50.934;4.668;2022-09-09T01:37:57;15.90;99.90
21602;DHT22;10963;50.934;4.668;2022-09-09T01:40:26;16.00;99.90
21602;DHT22;10963;50.934;4.668;2022-09-09T01:42:55;16.00;99.90
21602;DHT22;10963;50.934;4.668;2022-09-09T01:45:24;16.10;99.90
21602;DHT22;10963;50.934;4.668;2022-09-09T01:47:54;16.20;99.90
21602;DHT22;10963;50.934;4.668;2022-09-09T01:50:20;16.10;99.90
21602;DHT22;10963;50.934;4.668;2022-09-09T01:52:48;16.10;99.90
21602;DHT22;10963;50.934;4.668;2022-09-09T01:55:21;16.00;99.90
21602;DHT22;10963;50.934;4.668;2022-09-09T02:01:26;16.10;99.90
21602;DHT22;10963;50.934;4.668;2022-09-09T02:03:57;16.00;99.90
21602;DHT22;10963;50.934;4.668;2022-09-09T02:06:40;15.90;99.90
21602;DHT22;10963;50.934;4.668;2022-09-09T02:09:10;15.80;99.90
21602;DHT22;10963;50.934;4.668;2022-09-09T02:11:38;15.80;99.90
21602;DHT22;10963;50.934;4.668;2022-09-09T02:14:10;15.90;99.90
21602;DHT22;10963;50.934;4.668;2022-09-09T02:16:41;15.90;99.90
21602;DHT22;10963;50.934;4.668;2022-09-09T02:19:27;16.00;99.90
21602;DHT22;10963;50.934;4.668;2022-09-09T02:21:59;16.00;99.90
21602;DHT22;10963;50.934;4.668;2022-09-09T02:24:28;15.90;99.90
21602;DHT22;10963;50.934;4.668;2022-09-09T02:26:56;15.90;99.90
21602;DHT22;10963;50.934;4.668;2022-09-09T02:29:31;15.80;99.90
21602;DHT22;10963;50.934;4.668;2022-09-09T02:32:01;15.80;99.90
21602;DHT22;10963;50.934;4.668;2022-09-09T02:34:31;15.80;99.90
21602;DHT22;10963;50.934;4.668;2022-09-09T02:37:03;15.90;99.90
21602;DHT22;10963;50.934;4.668;2022-09-09T02:39:34;15.80;99.90
21602;DHT22;10963;50.934;4.668;2022-09-09T02:42:02;15.80;99.90
21602;DHT22;10963;50.934;4.668;2022-09-09T02:44:31;15.80;99.90
21602;DHT22;10963;50.934;4.668;2022-09-09T02:50:02;15.80;99.90
21602;DHT22;10963;50.934;4.668;2022-09-09T02:55:07;15.70;99.90
21602;DHT22;10963;50.934;4.668;2022-09-09T02:57:37;15.70;99.90
21602;DHT22;10963;50.934;4.668;2022-09-09T03:00:07;15.80;99.90
21602;DHT22;10963;50.934;4.668;2022-09-09T03:02:33;15.80;99.90
21602;DHT22;10963;50.934;4.668;2022-09-09T03:04:58;15.80;99.90
21602;DHT22;10963;50.934;4.668;2022-09-09T03:07:24;15.90;99.90
21602;DHT22;10963;50.934;4.668;2022-09-09T03:09:50;15.90;99.90
21602;DHT22;10963;50.934;4.668;2022-09-09T03:12:16;15.80;99.90
21602;DHT22;10963;50.934;4.668;2022-09-09T03:14:41;15.80;99.90
21602;DHT22;10963;50.934;4.668;2022-09-09T03:17:09;15.70;99.90
21602;DHT22;10963;50.934;4.668;2022-09-09T03:19:40;15.70;99.90
21602;DHT22;10963;50.934;4.668;2022-09-09T03:22:11;15.70;99.90
21602;DHT22;10963;50.934;4.668;2022-09-09T03:24:40;15.80;99.90
21602;DHT22;10963;50.934;4.668;2022-09-09T03:27:10;15.80;99.90
21602;DHT22;10963;50.934;4.668;2022-09-09T03:29:36;15.80;99.90
21602;DHT22;10963;50.934;4.668;2022-09-09T03:32:02;15.80;99.90
21602;DHT22;10963;50.934;4.668;2022-09-09T03:34:30;15.90;99.90
21602;DHT22;10963;50.934;4.668;2022-09-09T03:36:56;15.90;99.90
21602;DHT22;10963;50.934;4.668;2022-09-09T03:39:22;16.00;99.90
21602;DHT22;10963;50.934;4.668;2022-09-09T03:41:52;16.10;99.90
21602;DHT22;10963;50.934;4.668;2022-09-09T03:44:19;16.00;99.90
21602;DHT22;10963;50.934;4.668;2022-09-09T03:46:46;15.80;99.90
21602;DHT22;10963;50.934;4.668;2022-09-09T03:49:15;15.70;99.90
21602;DHT22;10963;50.934;4.668;2022-09-09T03:51:44;15.70;99.90
21602;DHT22;10963;50.934;4.668;2022-09-09T03:54:13;15.70;99.90
21602;DHT22;10963;50.934;4.668;2022-09-09T03:56:41;15.80;99.90
21602;DHT22;10963;50.934;4.668;2022-09-09T03:59:07;15.90;99.90
21602;DHT22;10963;50.934;4.668;2022-09-09T04:01:38;16.00;99.90
21602;DHT22;10963;50.934;4.668;2022-09-09T04:04:06;15.90;99.90
21602;DHT22;10963;50.934;4.668;2022-09-09T04:06:33;15.80;99.90
21602;DHT22;10963;50.934;4.668;2022-09-09T04:08:58;15.80;99.90
21602;DHT22;10963;50.934;4.668;2022-09-09T04:11:29;15.80;99.90
21602;DHT22;10963;50.934;4.668;2022-09-09T04:13:55;15.80;99.90
21602;DHT22;10963;50.934;4.668;2022-09-09T04:16:24;15.80;99.90
21602;DHT22;10963;50.934;4.668;2022-09-09T04:18:49;15.80;99.90
21602;DHT22;10963;50.934;4.668;2022-09-09T04:21:16;15.80;99.90
21602;DHT22;10963;50.934;4.668;2022-09-09T04:23:42;15.90;99.90
21602;DHT22;10963;50.934;4.668;2022-09-09T04:26:09;15.80;99.90
21602;DHT22;10963;50.934;4.668;2022-09-09T04:28:36;15.70;99.90
21602;DHT22;10963;50.934;4.668;2022-09-09T04:31:17;15.60;99.90
21602;DHT22;10963;50.934;4.668;2022-09-09T04:33:44;15.60;99.90
21602;DHT22;10963;50.934;4.668;2022-09-09T04:36:09;15.80;99.90
21602;DHT22;10963;50.934;4.668;2022-09-09T04:38:38;15.70;99.90
21602;DHT22;10963;50.934;4.668;2022-09-09T04:41:07;15.80;99.90
21602;DHT22;10963;50.934;4.668;2022-09-09T04:43:33;15.90;99.90
21602;DHT22;10963;50.934;4.668;2022-09-09T04:46:02;16.00;99.90
21602;DHT22;10963;50.934;4.668;2022-09-09T04:48:31;15.90;99.90
21602;DHT22;10963;50.934;4.668;2022-09-09T04:50:58;16.00;99.90
21602;DHT22;10963;50.934;4.668;2022-09-09T04:53:30;15.90;99.90
21602;DHT22;10963;50.934;4.668;2022-09-09T04:56:09;15.90;99.90
21602;DHT22;10963;50.934;4.668;2022-09-09T04:58:39;15.80;99.90
21602;DHT22;10963;50.934;4.668;2022-09-09T05:01:17;15.80;99.90
21602;DHT22;10963;50.934;4.668;2022-09-09T05:03:46;15.70;99.90
21602;DHT22;10963;50.934;4.668;2022-09-09T05:06:17;15.80;99.90
21602;DHT22;10963;50.934;4.668;2022-09-09T05:08:43;15.70;99.90
21602;DHT22;10963;50.934;4.668;2022-09-09T05:11:21;15.70;99.90
21602;DHT22;10963;50.934;4.668;2022-09-09T05:13:51;15.80;99.90
21602;DHT22;10963;50.934;4.668;2022-09-09T05:16:18;15.70;99.90
21602;DHT22;10963;50.934;4.668;2022-09-09T05:18:47;15.70;99.90
21602;DHT22;10963;50.934;4.668;2022-09-09T05:21:16;15.80;99.90
21602;DHT22;10963;50.934;4.668;2022-09-09T05:23:42;15.70;99.90
21602;DHT22;10963;50.934;4.668;2022-09-09T05:26:13;15.60;99.90
21602;DHT22;10963;50.934;4.668;2022-09-09T05:28:41;15.80;99.90
21602;DHT22;10963;50.934;4.668;2022-09-09T05:31:13;15.70;99.90
21602;DHT22;10963;50.934;4.668;2022-09-09T05:33:40;15.70;99.90
21602;DHT22;10963;50.934;4.668;2022-09-09T05:36:14;15.60;99.90
21602;DHT22;10963;50.934;4.668;2022-09-09T05:38:43;15.80;99.90
21602;DHT22;10963;50.934;4.668;2022-09-09T05:41:10;15.80;99.90
21602;DHT22;10963;50.934;4.668;2022-09-09T05:43:37;15.80;99.90
21602;DHT22;10963;50.934;4.668;2022-09-09T05:46:08;15.80;99.90
21602;DHT22;10963;50.934;4.668;2022-09-09T05:48:39;15.90;99.90
21602;DHT22;10963;50.934;4.668;2022-09-09T05:51:11;16.10;99.90
21602;DHT22;10963;50.934;4.668;2022-09-09T05:53:41;16.20;99.90
21602;DHT22;10963;50.934;4.668;2022-09-09T05:56:11;16.40;99.90
21602;DHT22;10963;50.934;4.668;2022-09-09T05:58:44;16.60;99.90
21602;DHT22;10963;50.934;4.668;2022-09-09T06:03:49;16.80;99.90
21602;DHT22;10963;50.934;4.668;2022-09-09T06:06:30;16.90;99.90
21602;DHT22;10963;50.934;4.668;2022-09-09T06:08:56;17.20;99.90
21602;DHT22;10963;50.934;4.668;2022-09-09T06:11:31;17.20;99.90
21602;DHT22;10963;50.934;4.668;2022-09-09T06:13:59;17.00;99.90
21602;DHT22;10963;50.934;4.668;2022-09-09T06:16:27;17.00;99.90
21602;DHT22;10963;50.934;4.668;2022-09-09T06:18:58;16.90;99.90
21602;DHT22;10963;50.934;4.668;2022-09-09T06:21:25;17.00;99.90
21602;DHT22;10963;50.934;4.668;2022-09-09T06:23:56;17.10;99.90
21602;DHT22;10963;50.934;4.668;2022-09-09T06:26:29;17.00;99.90
21602;DHT22;10963;50.934;4.668;2022-09-09T06:29:01;16.90;99.90
21602;DHT22;10963;50.934;4.668;2022-09-09T06:31:30;17.00;99.90
21602;DHT22;10963;50.934;4.668;2022-09-09T06:33:59;17.20;99.90
21602;DHT22;10963;50.934;4.668;2022-09-09T06:36:26;17.40;99.90
21602;DHT22;10963;50.934;4.668;2022-09-09T06:38:53;17.40;99.90
21602;DHT22;10963;50.934;4.668;2022-09-09T06:41:20;17.30;99.90
21602;DHT22;10963;50.934;4.668;2022-09-09T06:43:46;17.30;99.90
21602;DHT22;10963;50.934;4.668;2022-09-09T06:46:14;17.30;99.90
21602;DHT22;10963;50.934;4.668;2022-09-09T06:48:41;17.30;99.90
21602;DHT22;10963;50.934;4.668;2022-09-09T06:51:17;17.40;99.90
21602;DHT22;10963;50.934;4.668;2022-09-09T06:53:47;17.70;99.90
21602;DHT22;10963;50.934;4.668;2022-09-09T06:58:41;17.80;99.90
21602;DHT22;10963;50.934;4.668;2022-09-09T07:01:14;17.80;99.90
21602;DHT22;10963;50.934;4.668;2022-09-09T07:03:41;18.00;99.90
21602;DHT22;10963;50.934;4.668;2022-09-09T07:06:12;17.90;99.90
21602;DHT22;10963;50.934;4.668;2022-09-09T07:08:40;17.80;99.90
21602;DHT22;10963;50.934;4.668;2022-09-09T07:11:10;17.70;99.90
21602;DHT22;10963;50.934;4.668;2022-09-09T07:13:36;17.70;99.90
21602;DHT22;10963;50.934;4.668;2022-09-09T07:16:10;17.70;99.90
21602;DHT22;10963;50.934;4.668;2022-09-09T07:18:36;17.60;99.90
21602;DHT22;10963;50.934;4.668;2022-09-09T07:21:03;17.50;99.90
21602;DHT22;10963;50.934;4.668;2022-09-09T07:23:30;17.40;99.90
21602;DHT22;10963;50.934;4.668;2022-09-09T07:25:56;17.40;99.90
21602;DHT22;10963;50.934;4.668;2022-09-09T07:28:25;17.50;99.90
21602;DHT22;10963;50.934;4.668;2022-09-09T07:30:58;17.40;99.90
21602;DHT22;10963;50.934;4.668;2022-09-09T07:33:28;17.40;99.90
21602;DHT22;10963;50.934;4.668;2022-09-09T07:36:24;17.40;99.90
21602;DHT22;10963;50.934;4.668;2022-09-09T07:38:56;17.50;99.90
21602;DHT22;10963;50.934;4.668;2022-09-09T07:41:33;17.50;99.90
21602;DHT22;10963;50.934;4.668;2022-09-09T07:44:15;17.50;99.90
21602;DHT22;10963;50.934;4.668;2022-09-09T07:46:44;17.60;99.90
21602;DHT22;10963;50.934;4.668;2022-09-09T07:49:11;17.70;99.90
21602;DHT22;10963;50.934;4.668;2022-09-09T07:51:42;17.80;99.90
21602;DHT22;10963;50.934;4.668;2022-09-09T07:54:10;17.80;99.90
21602;DHT22;10963;50.934;4.668;2022-09-09T07:56:40;17.70;99.90
21602;DHT22;10963;50.934;4.668;2022-09-09T07:59:06;17.70;99.90
21602;DHT22;10963;50.934;4.668;2022-09-09T08:01:37;17.60;99.90
21602;DHT22;10963;50.934;4.668;2022-09-09T08:04:06;17.70;99.90
21602;DHT22;10963;50.934;4.668;2022-09-09T08:06:37;17.50;99.90
21602;DHT22;10963;50.934;4.668;2022-09-09T08:09:06;17.60;99.90
21602;DHT22;10963;50.934;4.668;2022-09-09T08:11:35;17.80;99.90
21602;DHT22;10963;50.934;4.668;2022-09-09T08:14:04;17.80;99.90
21602;DHT22;10963;50.934;4.668;2022-09-09T08:16:33;17.80;99.90
21602;DHT22;10963;50.934;4.668;2022-09-09T08:18:58;17.90;99.90
21602;DHT22;10963;50.934;4.668;2022-09-09T08:21:27;17.90;99.90
21602;DHT22;10963;50.934;4.668;2022-09-09T08:23:55;17.90;99.90
21602;DHT22;10963;50.934;4.668;2022-09-09T08:26:23;18.10;99.90
21602;DHT22;10963;50.934;4.668;2022-09-09T08:28:50;18.60;99.90
21602;DHT22;10963;50.934;4.668;2022-09-09T08:31:21;18.80;99.90
21602;DHT22;10963;50.934;4.668;2022-09-09T08:33:50;19.00;99.90
21602;DHT22;10963;50.934;4.668;2022-09-09T08:36:21;19.00;99.90
21602;DHT22;10963;50.934;4.668;2022-09-09T08:38:52;19.40;99.90
21602;DHT22;10963;50.934;4.668;2022-09-09T08:52:02;19.10;99.90
21602;DHT22;10963;50.934;4.668;2022-09-09T08:54:35;19.00;99.90
21602;DHT22;10963;50.934;4.668;2022-09-09T08:57:03;19.00;99.90
21602;DHT22;10963;50.934;4.668;2022-09-09T08:59:35;19.00;99.90
21602;DHT22;10963;50.934;4.668;2022-09-09T09:10:53;18.50;99.90
21602;DHT22;10963;50.934;4.668;2022-09-09T09:13:20;18.50;99.90
21602;DHT22;10963;50.934;4.668;2022-09-09T09:15:56;18.30;99.90
21602;DHT22;10963;50.934;4.668;2022-09-09T09:18:24;18.20;99.90
21602;DHT22;10963;50.934;4.668;2022-09-09T09:21:12;18.20;99.90
21602;DHT22;10963;50.934;4.668;2022-09-09T09:23:52;18.30;99.90
21602;DHT22;10963;50.934;4.668;2022-09-09T09:26:23;18.50;99.90
21602;DHT22;10963;50.934;4.668;2022-09-09T09:28:50;18.60;99.90
21602;DHT22;10963;50.934;4.668;2022-09-09T09:31:20;18.50;99.90
21602;DHT22;10963;50.934;4.668;2022-09-09T09:33:55;18.70;99.90
21602;DHT22;10963;50.934;4.668;2022-09-09T09:36:52;18.80;99.90
21602;DHT22;10963;50.934;4.668;2022-09-09T09:39:27;19.10;99.90
21602;DHT22;10963;50.934;4.668;2022-09-09T09:41:56;18.80;99.90
21602;DHT22;10963;50.934;4.668;2022-09-09T09:44:31;18.80;99.90
21602;DHT22;10963;50.934;4.668;2022-09-09T09:47:14;18.60;99.90
21602;DHT22;10963;50.934;4.668;2022-09-09T09:49:57;18.60;99.90
21602;DHT22;10963;50.934;4.668;2022-09-09T09:52:29;18.50;99.90
21602;DHT22;10963;50.934;4.668;2022-09-09T09:55:03;18.60;99.90
21602;DHT22;10963;50.934;4.668;2022-09-09T09:57:31;18.70;99.90
21602;DHT22;10963;50.934;4.668;2022-09-09T10:00:20;18.50;99.90
21602;DHT22;10963;50.934;4.668;2022-09-09T10:02:47;18.60;99.90
21602;DHT22;10963;50.934;4.668;2022-09-09T10:07:42;18.50;99.90
21602;DHT22;10963;50.934;4.668;2022-09-09T10:10:31;18.50;99.90
21602;DHT22;10963;50.934;4.668;2022-09-09T10:19:01;18.30;99.90
21602;DHT22;10963;50.934;4.668;2022-09-09T10:21:49;18.10;99.90
21602;DHT22;10963;50.934;4.668;2022-09-09T10:32:36;18.00;99.90
21602;DHT22;10963;50.934;4.668;2022-09-09T10:35:42;18.20;99.90
21602;DHT22;10963;50.934;4.668;2022-09-09T10:38:34;18.30;99.90
21602;DHT22;10963;50.934;4.668;2022-09-09T10:52:19;19.00;99.90
21602;DHT22;10963;50.934;4.668;2022-09-09T10:55:12;19.00;99.90
21602;DHT22;10963;50.934;4.668;2022-09-09T10:57:56;19.10;99.90
21602;DHT22;10963;50.934;4.668;2022-09-09T11:00:25;19.30;99.90
21602;DHT22;10963;50.934;4.668;2022-09-09T11:03:00;19.00;99.90
21602;DHT22;10963;50.934;4.668;2022-09-09T11:05:28;19.00;99.90
21602;DHT22;10963;50.934;4.668;2022-09-09T11:13:19;19.50;99.90
21602;DHT22;10963;50.934;4.668;2022-09-09T11:15:54;19.40;99.90
21602;DHT22;10963;50.934;4.668;2022-09-09T11:18:25;19.80;99.90
21602;DHT22;10963;50.934;4.668;2022-09-09T11:21:00;20.30;99.90
21602;DHT22;10963;50.934;4.668;2022-09-09T11:23:46;20.30;99.90
21602;DHT22;10963;50.934;4.668;2022-09-09T11:26:30;20.50;99.90
21602;DHT22;10963;50.934;4.668;2022-09-09T11:29:06;20.70;99.90
21602;DHT22;10963;50.934;4.668;2022-09-09T11:34:54;20.40;99.90
21602;DHT22;10963;50.934;4.668;2022-09-09T11:42:46;20.80;99.90
21602;DHT22;10963;50.934;4.668;2022-09-09T11:45:28;20.60;99.90
21602;DHT22;10963;50.934;4.668;2022-09-09T11:48:02;20.80;99.90
21602;DHT22;10963;50.934;4.668;2022-09-09T11:50:35;21.10;99.90
21602;DHT22;10963;50.934;4.668;2022-09-09T11:53:21;21.30;99.90
21602;DHT22;10963;50.934;4.668;2022-09-09T11:56:09;21.10;99.90
21602;DHT22;10963;50.934;4.668;2022-09-09T11:58:41;21.00;99.90
21602;DHT22;10963;50.934;4.668;2022-09-09T12:01:34;20.50;99.90
21602;DHT22;10963;50.934;4.668;2022-09-09T12:06:50;20.20;99.90
21602;DHT22;10963;50.934;4.668;2022-09-09T12:17:48;20.60;99.90
21602;DHT22;10963;50.934;4.668;2022-09-09T12:25:58;20.80;99.90
21602;DHT22;10963;50.934;4.668;2022-09-09T12:28:42;20.80;99.90
21602;DHT22;10963;50.934;4.668;2022-09-09T12:31:28;20.70;99.90
21602;DHT22;10963;50.934;4.668;2022-09-09T12:37:00;20.70;99.90
21602;DHT22;10963;50.934;4.668;2022-09-09T12:39:58;20.50;99.90
21602;DHT22;10963;50.934;4.668;2022-09-09T12:42:25;20.50;99.90
21602;DHT22;10963;50.934;4.668;2022-09-09T12:45:14;20.60;99.90
21602;DHT22;10963;50.934;4.668;2022-09-09T12:47:58;20.70;99.90
21602;DHT22;10963;50.934;4.668;2022-09-09T12:50:31;20.90;99.90
21602;DHT22;10963;50.934;4.668;2022-09-09T12:53:03;20.90;99.90
21602;DHT22;10963;50.934;4.668;2022-09-09T12:55:35;21.10;99.90
21602;DHT22;10963;50.934;4.668;2022-09-09T12:58:03;21.00;99.90
21602;DHT22;10963;50.934;4.668;2022-09-09T13:00:32;21.00;99.90
21602;DHT22;10963;50.934;4.668;2022-09-09T13:03:00;20.90;99.90
21602;DHT22;10963;50.934;4.668;2022-09-09T13:05:38;20.60;99.90
21602;DHT22;10963;50.934;4.668;2022-09-09T13:08:11;20.40;99.90
21602;DHT22;10963;50.934;4.668;2022-09-09T13:13:27;21.00;99.90
21602;DHT22;10963;50.934;4.668;2022-09-09T13:16:02;21.10;99.90
21602;DHT22;10963;50.934;4.668;2022-09-09T13:18:33;21.00;99.90
21602;DHT22;10963;50.934;4.668;2022-09-09T13:20:59;21.30;99.90
21602;DHT22;10963;50.934;4.668;2022-09-09T13:23:34;21.20;99.90
21602;DHT22;10963;50.934;4.668;2022-09-09T13:28:50;21.90;99.90
21602;DHT22;10963;50.934;4.668;2022-09-09T13:31:28;22.10;99.90
21602;DHT22;10963;50.934;4.668;2022-09-09T13:33:54;22.00;99.90
21602;DHT22;10963;50.934;4.668;2022-09-09T13:36:33;21.60;99.90
21602;DHT22;10963;50.934;4.668;2022-09-09T13:39:02;21.70;99.90
21602;DHT22;10963;50.934;4.668;2022-09-09T13:41:36;21.80;99.90
21602;DHT22;10963;50.934;4.668;2022-09-09T13:44:18;21.80;99.90
21602;DHT22;10963;50.934;4.668;2022-09-09T13:46:45;21.70;99.90
21602;DHT22;10963;50.934;4.668;2022-09-09T13:51:49;21.50;99.90
21602;DHT22;10963;50.934;4.668;2022-09-09T13:54:18;21.40;99.90
21602;DHT22;10963;50.934;4.668;2022-09-09T13:56:45;21.10;99.90
21602;DHT22;10963;50.934;4.668;2022-09-09T13:59:16;21.00;99.90
21602;DHT22;10963;50.934;4.668;2022-09-09T14:01:44;20.80;99.90
21602;DHT22;10963;50.934;4.668;2022-09-09T14:04:10;21.00;99.90
21602;DHT22;10963;50.934;4.668;2022-09-09T14:06:36;21.20;99.90
21602;DHT22;10963;50.934;4.668;2022-09-09T14:09:10;21.40;99.90
21602;DHT22;10963;50.934;4.668;2022-09-09T14:11:38;21.60;99.90
21602;DHT22;10963;50.934;4.668;2022-09-09T14:14:07;22.10;99.90
21602;DHT22;10963;50.934;4.668;2022-09-09T14:16:32;22.30;99.90
21602;DHT22;10963;50.934;4.668;2022-09-09T14:19:01;22.60;99.90
21602;DHT22;10963;50.934;4.668;2022-09-09T14:21:27;22.80;99.90
21602;DHT22;10963;50.934;4.668;2022-09-09T14:23:53;22.90;99.90
21602;DHT22;10963;50.934;4.668;2022-09-09T14:26:24;22.90;99.90
21602;DHT22;10963;50.934;4.668;2022-09-09T14:28:54;23.00;99.90
21602;DHT22;10963;50.934;4.668;2022-09-09T14:31:19;23.20;99.90
21602;DHT22;10963;50.934;4.668;2022-09-09T14:33:46;23.10;99.90
21602;DHT22;10963;50.934;4.668;2022-09-09T14:36:14;22.80;99.90
21602;DHT22;10963;50.934;4.668;2022-09-09T14:38:40;22.80;99.90
21602;DHT22;10963;50.934;4.668;2022-09-09T14:41:13;22.80;99.90
21602;DHT22;10963;50.934;4.668;2022-09-09T14:43:40;22.90;99.90
21602;DHT22;10963;50.934;4.668;2022-09-09T14:46:11;22.80;99.90
21602;DHT22;10963;50.934;4.668;2022-09-09T14:48:37;22.80;99.90
21602;DHT22;10963;50.934;4.668;2022-09-09T14:51:10;22.60;99.90
21602;DHT22;10963;50.934;4.668;2022-09-09T14:53:36;22.50;99.90
21602;DHT22;10963;50.934;4.668;2022-09-09T14:56:07;22.20;99.90
21602;DHT22;10963;50.934;4.668;2022-09-09T14:58:36;22.20;99.90
21602;DHT22;10963;50.934;4.668;2022-09-09T15:01:10;22.50;99.90
21602;DHT22;10963;50.934;4.668;2022-09-09T15:03:41;22.70;99.90
21602;DHT22;10963;50.934;4.668;2022-09-09T15:06:15;23.00;99.90
21602;DHT22;10963;50.934;4.668;2022-09-09T15:08:47;23.30;99.90
21602;DHT22;10963;50.934;4.668;2022-09-09T15:11:14;23.30;99.90
21602;DHT22;10963;50.934;4.668;2022-09-09T15:13:43;23.20;99.90
21602;DHT22;10963;50.934;4.668;2022-09-09T15:16:18;22.90;99.90
21602;DHT22;10963;50.934;4.668;2022-09-09T15:18:49;22.90;99.90
21602;DHT22;10963;50.934;4.668;2022-09-09T15:21:23;22.50;99.90
21602;DHT22;10963;50.934;4.668;2022-09-09T15:23:51;22.10;99.90
21602;DHT22;10963;50.934;4.668;2022-09-09T15:26:18;21.90;99.90
21602;DHT22;10963;50.934;4.668;2022-09-09T15:28:48;22.10;99.90
21602;DHT22;10963;50.934;4.668;2022-09-09T15:31:23;22.40;99.90
21602;DHT22;10963;50.934;4.668;2022-09-09T15:33:55;22.70;99.90
21602;DHT22;10963;50.934;4.668;2022-09-09T15:36:29;22.50;99.90
21602;DHT22;10963;50.934;4.668;2022-09-09T15:38:58;22.40;99.90
21602;DHT22;10963;50.934;4.668;2022-09-09T15:41:25;22.30;99.90
21602;DHT22;10963;50.934;4.668;2022-09-09T15:43:55;22.20;99.90
21602;DHT22;10963;50.934;4.668;2022-09-09T15:46:33;22.40;99.90
21602;DHT22;10963;50.934;4.668;2022-09-09T15:49:22;22.40;99.90
21602;DHT22;10963;50.934;4.668;2022-09-09T15:51:58;22.50;99.90
21602;DHT22;10963;50.934;4.668;2022-09-09T15:54:26;22.40;99.90
21602;DHT22;10963;50.934;4.668;2022-09-09T15:56:57;22.40;99.90
21602;DHT22;10963;50.934;4.668;2022-09-09T15:59:26;22.40;99.90
21602;DHT22;10963;50.934;4.668;2022-09-09T16:01:53;22.30;99.90
21602;DHT22;10963;50.934;4.668;2022-09-09T16:04:21;22.10;99.90
21602;DHT22;10963;50.934;4.668;2022-09-09T16:07:02;22.10;99.90
21602;DHT22;10963;50.934;4.668;2022-09-09T16:09:29;21.90;99.90
21602;DHT22;10963;50.934;4.668;2022-09-09T16:11:57;21.90;99.90
21602;DHT22;10963;50.934;4.668;2022-09-09T16:14:24;21.90;99.90
21602;DHT22;10963;50.934;4.668;2022-09-09T16:16:50;21.80;99.90
21602;DHT22;10963;50.934;4.668;2022-09-09T16:19:16;21.50;99.90
21602;DHT22;10963;50.934;4.668;2022-09-09T16:21:47;21.30;99.90
21602;DHT22;10963;50.934;4.668;2022-09-09T16:24:16;21.50;99.90
21602;DHT22;10963;50.934;4.668;2022-09-09T16:26:44;21.30;99.90
21602;DHT22;10963;50.934;4.668;2022-09-09T16:29:11;21.20;99.90
21602;DHT22;10963;50.934;4.668;2022-09-09T16:31:38;21.30;99.90
21602;DHT22;10963;50.934;4.668;2022-09-09T16:34:04;21.20;99.90
21602;DHT22;10963;50.934;4.668;2022-09-09T16:36:32;21.30;99.90
21602;DHT22;10963;50.934;4.668;2022-09-09T16:39:02;21.10;99.90
21602;DHT22;10963;50.934;4.668;2022-09-09T16:41:29;21.10;99.90
21602;DHT22;10963;50.934;4.668;2022-09-09T16:43:59;21.00;99.90
21602;DHT22;10963;50.934;4.668;2022-09-09T16:46:31;21.10;99.90
21602;DHT22;10963;50.934;4.668;2022-09-09T16:48:58;21.20;99.90
21602;DHT22;10963;50.934;4.668;2022-09-09T16:51:32;21.00;99.90
21602;DHT22;10963;50.934;4.668;2022-09-09T16:54:00;20.90;99.90
21602;DHT22;10963;50.934;4.668;2022-09-09T16:56:30;20.90;99.90
21602;DHT22;10963;50.934;4.668;2022-09-09T16:58:59;20.90;99.90
21602;DHT22;10963;50.934;4.668;2022-09-09T17:01:30;20.80;99.90
21602;DHT22;10963;50.934;4.668;2022-09-09T17:03:58;20.80;99.90
21602;DHT22;10963;50.934;4.668;2022-09-09T17:06:26;20.80;99.90
21602;DHT22;10963;50.934;4.668;2022-09-09T17:08:56;20.70;99.90
21602;DHT22;10963;50.934;4.668;2022-09-09T17:11:23;20.50;99.90
21602;DHT22;10963;50.934;4.668;2022-09-09T17:13:49;20.50;99.90
21602;DHT22;10963;50.934;4.668;2022-09-09T17:16:17;20.50;99.90
21602;DHT22;10963;50.934;4.668;2022-09-09T17:18:43;20.50;99.90
21602;DHT22;10963;50.934;4.668;2022-09-09T17:21:12;20.30;99.90
21602;DHT22;10963;50.934;4.668;2022-09-09T17:23:40;20.20;99.90
21602;DHT22;10963;50.934;4.668;2022-09-09T17:26:08;20.20;99.90
21602;DHT22;10963;50.934;4.668;2022-09-09T17:28:36;20.20;99.90
21602;DHT22;10963;50.934;4.668;2022-09-09T17:31:05;20.10;99.90
21602;DHT22;10963;50.934;4.668;2022-09-09T17:33:33;20.10;99.90
21602;DHT22;10963;50.934;4.668;2022-09-09T17:36:02;20.10;99.90
21602;DHT22;10963;50.934;4.668;2022-09-09T17:38:28;20.10;99.90
21602;DHT22;10963;50.934;4.668;2022-09-09T17:41:07;20.20;99.90
21602;DHT22;10963;50.934;4.668;2022-09-09T17:43:38;20.10;99.90
21602;DHT22;10963;50.934;4.668;2022-09-09T17:46:13;19.80;99.90
21602;DHT22;10963;50.934;4.668;2022-09-09T17:48:41;19.60;99.90
21602;DHT22;10963;50.934;4.668;2022-09-09T17:51:13;19.50;99.90
21602;DHT22;10963;50.934;4.668;2022-09-09T17:53:44;19.50;99.90
21602;DHT22;10963;50.934;4.668;2022-09-09T17:56:13;19.40;99.90
21602;DHT22;10963;50.934;4.668;2022-09-09T17:58:40;19.30;99.90
21602;DHT22;10963;50.934;4.668;2022-09-09T18:01:13;19.40;99.90
21602;DHT22;10963;50.934;4.668;2022-09-09T18:03:41;19.30;99.90
21602;DHT22;10963;50.934;4.668;2022-09-09T18:06:09;19.20;99.90
21602;DHT22;10963;50.934;4.668;2022-09-09T18:08:36;19.20;99.90
21602;DHT22;10963;50.934;4.668;2022-09-09T18:11:03;19.30;99.90
21602;DHT22;10963;50.934;4.668;2022-09-09T18:13:29;19.10;99.90
21602;DHT22;10963;50.934;4.668;2022-09-09T18:15:55;19.00;99.90
21602;DHT22;10963;50.934;4.668;2022-09-09T18:18:24;19.00;99.90
21602;DHT22;10963;50.934;4.668;2022-09-09T18:21:01;19.10;99.90
21602;DHT22;10963;50.934;4.668;2022-09-09T18:23:30;19.10;99.90